默认 日期 大小 文件数 浏览量 最新下载 xml
bruno磁力链接相关资源由用户搜索指令自动获取,结果来源于网络,本站不存储任何资料,亦不承担任何责任,请于24小时内删除,搜索到2733个磁力,用时4ms。
    {"RARBG.nfo": 32, "JacquieEtMichelTV - Tiffany - Tiffany fait craquer l'ami Bruno.mp4": 206005858}
创建时间: 2018-12-06 01:30:33 大小:196.46 MB 文件数量:2 热度:12 最近下载:2025-08-04 16:16:02
    {"Mark Ronson feat Bruno Mars - Uptown Funk (single) mp3 @ 320 kbps.mp3": 7749631}
创建时间: 2018-12-06 07:22:39 大小:7.39 MB 文件数量:1 热度:11 最近下载:2024-05-16 09:28:02
    {"Leia.txt": 160, "BLUDV.mp4": 33957794, "BLUDV.url": 110, "Bruno.e.Boots.Antes.so.do.que.mal.acompanhado.2018.720p.WEB-DL.x264.DUBLADO-WWW.BLUDV.COM.mp4": 833769188}
创建时间: 2018-12-06 07:44:32 大小:827.53 MB 文件数量:4 热度:17 最近下载:2025-08-05 17:25:01
    {"sample.avi": 20551680, "Bruno.2009.BDRip.XviD.HUN.AC3-naraic25.avi": 1204582400, "Bruno.2009.BDRip.XviD.HUN.AC3-naraic25.nfo": 1314, "Bruno.2009.BDRip.XviD.HUN.AC3-naraic25.srt": 11864}
创建时间: 2018-12-06 08:02:27 大小:1.14 GB 文件数量:4 热度:7 最近下载:2023-04-22 08:00:10
    {"1-09 The Impressario Overture, K. 486.m4a": 22842711, "1-12 The Magic Flute Overture, K. 620.m4a": 40700840, "1-10 Così Fan Tutte Overture, K. 588.m4a": 25878743, "3-09 The Masonic Funeral Music, K. 477.m4a": 42617530, "4-02 Mozart_ Requiem, K 626 - 2. ...
创建时间: 2018-12-06 11:04:20 大小:1.73 GB 文件数量:69 热度:17 最近下载:2024-11-28 07:28:01
    ... 6540, "01. Danny Fontana, Bruno Aguirre - Signatures (Original Mix). ... 51005397, "02. Danny Fontana, Bruno Aguirre - Last Stage (Original ... 49524792, "03. Danny Fontana, Bruno Aguirre - Scream Of Madness ( ... , "04. Danny Fontana, Bruno Aguirre - The Kick In Your ...
创建时间: 2018-12-06 16:58:51 大小:195.42 MB 文件数量:6 热度:11 最近下载:2025-01-13 18:55:02
    {"4299995.mp4": 179489486, "4299998.mp4": 177354074, "4299995.mp4.png": 1684738, "4299998.mp4.png": 1495354, "Untitled Document 1": 176}
创建时间: 2018-12-06 18:17:35 大小:343.35 MB 文件数量:5 热度:5 最近下载:2022-04-23 06:19:21
    {"Caroline": {"caroline.jpg": 51346, "Caroline_0001.wmv": 992778755, "Caroline_0001.wmv.jpg": 442098}}
创建时间: 2018-12-07 00:44:00 大小:947.26 MB 文件数量:3 热度:13 最近下载:2025-04-29 03:22:02
    {"32 - Shadows.mp3": 6915432, "02 - Foglie Rosse.mp3": 5221662, "18 - Foglie Rosse.mp3": 7756584, "05 - Vento D'Autunno.mp3": 5342876, "08 - Vento D'Autunno.mp3": 7109799, "12 - Vento D'Autunno.mp3": 4501733, "22 - Vento D'Autunno.mp3": 3209195, "La Coda ...
创建时间: 2018-12-07 01:01:08 大小:150.6 MB 文件数量:33 热度:15 最近下载:2025-08-11 11:28:02
    {"14 Amori.mp3": 8891948, "04 Climax.mp3": 16280336, "05 Tempio.mp3": 3448532, "06 Climax.mp3": 3085220, "07 Giostra.mp3": 15357440, "11 Cocktail.mp3": 12575180, "02 Le Streghe.mp3": 6551300, "09 Infrarosso.mp3": 19206668, "13 Le Streghe.mp3": 8901344, "10 ...
创建时间: 2018-12-07 03:53:11 大小:161.38 MB 文件数量:20 热度:12 最近下载:2025-05-27 17:57:01
    {"01.mp3": 10182638, "02.mp3": 10303794, "03.mp3": 10353792, "04.mp3": 10327617, "05.mp3": 10341253, "06.mp3": 10281067, "07.mp3": 9948319, "08.mp3": 9959918, "09.mp3": 10148940, "10.mp3": 10148470, "11.mp3": 10244705, "12.mp3": 10295016, "13.mp3": ...
创建时间: 2018-12-07 04:24:10 大小:282.89 MB 文件数量:32 热度:8 最近下载:2024-12-08 19:55:02
    ... - Disc 4.cue": 3362, "Bruno Nicolai - Sound Dimensions - Music ... Images And Imagination.log": 22746}, "Bruno Nicolai - Disc 5": {"01 ... - Disc 5.cue": 3660, "Bruno Nicolai - Sound Dimensions - Music ... Disc 6.cue": 1731, "Bruno Nicolai - Sound Dimensions - Music ...
创建时间: 2018-12-07 17:23:46 大小:1.65 GB 文件数量:116 热度:10 最近下载:2025-03-19 17:50:03
    {"Hors Satan (Bruno Dumont, 2011) DVDRip Subs.avi": 1572933632, "Hors Satan (Bruno Dumont, 2011) DVDRip Subs.srt": 12454}
创建时间: 2018-12-07 18:23:10 大小:1.46 GB 文件数量:2 热度:13 最近下载:2025-07-06 11:36:02
    {"cover.jpg": 71178, "booklet.pdf": 784526, "fooCDtect.log": 4624, "13 Harpsichord Piece ''La Boucon'' - Book VI, in C Minor.flac": 24015926, "26 Harpsichord Piece ''La Tribolet'' - Book VI, in A Minor.flac": 33431890, "05 Sonata for Cello and B.C. No. 5- ...
创建时间: 2018-12-07 19:18:51 大小:379.38 MB 文件数量:32 热度:11 最近下载:2025-02-05 14:40:04
    {"09 La Festa.flac": 33455361, "07 Cena Per Due.flac": 15358484, "15 Nella Cripta.flac": 24219613, "Audiochecker log.log": 1316, "10 Freschi Sposi.flac": 15349964, "13 Serpente Killer.flac": 30857805, "04 Ricordo Di Evelyn.flac": 17371398, "16 Gladys ...
创建时间: 2018-12-07 20:15:29 大小:358.07 MB 文件数量:21 热度:14 最近下载:2025-10-04 04:25:02
    {"01. Piano Textures I.mp3": 16731995, "05. Piano Textures V.mp3": 15433187, "02. Piano Textures II.mp3": 15868909, "04. Piano Textures IV.mp3": 14594134, "06. Piano Textures VI.mp3": 20542738, "03. Piano Textures III.mp3": 12118771, "07. Piano Textures ...
创建时间: 2018-12-07 22:40:42 大小:127.83 MB 文件数量:8 热度:6 最近下载:2023-04-23 01:01:37
    ... 2 - inside 2.jpg": 1629727, "Bruno Sanfilippo - Piano Textures 2.cue ... ": 1186, "Bruno Sanfilippo - Piano Textures 2.log ... ": 3227, "Bruno Sanfilippo - Piano Textures 2.accurip ...
创建时间: 2018-12-07 22:41:58 大小:191.19 MB 文件数量:16 热度:7 最近下载:2025-05-13 15:16:02
    {"Bruno e Marrone.rar": 336284101, "Torrent_downloaded_from_Demonoid.com.txt": 47}
创建时间: 2018-12-07 23:41:19 大小:320.71 MB 文件数量:2 热度:5 最近下载:2023-04-23 01:40:18
    ... More Collection!!!.txt": 148, "02. Bruno Mars - Faded.mp3": 8976063, "06 ... Turn Around.mp3": 7401414, "13. Bruno Mars - All She Knows.mp3 ... ": 10407590, "01. Bruno Mars - Watching Her Move. ... Too.mp3": 8431697, "10. Bruno Mars - Somewhere In Brooklyn.mp3 ...
创建时间: 2018-12-08 02:07:29 大小:105.55 MB 文件数量:17 热度:6 最近下载:2022-04-23 05:52:02
    {"Bruno (www.kinokopilka.tv).avi": 1564231680, "Bruno (www.kinokopilka.tv).jpg": 158543, "KinoKopilka.tv - Best Movies BitTorrent Network.url": 154}
创建时间: 2018-12-08 04:06:25 大小:1.46 GB 文件数量:3 热度:5 最近下载:2022-04-23 06:28:17